createdAt,value
2023-10-12T00:02:17.016Z,0.80
2023-10-12T00:04:44.685Z,0.80
2023-10-12T00:07:16.761Z,0.70
2023-10-12T00:09:50.180Z,0.80
2023-10-12T00:12:25.163Z,1.10
2023-10-12T00:14:56.234Z,0.70
2023-10-12T00:17:25.073Z,0.80
2023-10-12T00:19:52.386Z,1.00
2023-10-12T00:22:20.362Z,1.30
2023-10-12T00:24:47.787Z,0.80
2023-10-12T00:27:16.136Z,0.90
2023-10-12T00:29:45.706Z,0.80
2023-10-12T00:32:14.416Z,1.00
2023-10-12T00:34:47.425Z,0.70
2023-10-12T00:37:15.686Z,0.70
2023-10-12T00:39:59.577Z,1.10
2023-10-12T00:42:33.364Z,0.60
2023-10-12T00:45:20.022Z,1.10
2023-10-12T00:47:52.629Z,0.70
2023-10-12T00:50:20.603Z,0.80
2023-10-12T00:52:55.956Z,0.80
2023-10-12T00:55:36.118Z,0.80
2023-10-12T00:58:09.420Z,0.70
2023-10-12T01:00:47.412Z,0.80
2023-10-12T01:03:41.173Z,0.70
2023-10-12T01:06:22.445Z,1.00
2023-10-12T01:08:50.426Z,0.80
2023-10-12T01:11:22.671Z,0.80
2023-10-12T01:13:56.296Z,0.60
2023-10-12T01:16:24.632Z,0.80
2023-10-12T01:18:58.033Z,0.70
2023-10-12T01:21:25.419Z,0.60
2023-10-12T01:23:52.939Z,0.70
2023-10-12T01:26:21.504Z,0.70
2023-10-12T01:28:50.848Z,0.80
2023-10-12T01:31:25.721Z,0.70
2023-10-12T01:33:56.169Z,1.10
2023-10-12T01:36:24.364Z,0.70
2023-10-12T01:38:52.690Z,0.80
2023-10-12T01:41:27.219Z,0.80
2023-10-12T01:46:24.047Z,0.60
2023-10-12T01:48:51.407Z,0.70
2023-10-12T01:51:30.249Z,0.70
2023-10-12T01:53:57.692Z,0.80
2023-10-12T01:56:30.080Z,0.70
2023-10-12T01:58:57.366Z,0.80
2023-10-12T02:01:25.953Z,0.90
2023-10-12T02:03:57.081Z,0.90
2023-10-12T02:06:29.703Z,0.70
2023-10-12T02:09:16.665Z,0.80
2023-10-12T02:11:45.020Z,0.80
2023-10-12T02:14:14.021Z,0.80
2023-10-12T02:16:54.482Z,0.80
2023-10-12T02:19:33.167Z,0.70
2023-10-12T02:22:02.920Z,0.80
2023-10-12T02:24:30.530Z,0.80
2023-10-12T02:27:01.661Z,0.80
2023-10-12T02:29:31.148Z,0.90
2023-10-12T02:32:00.523Z,0.60
2023-10-12T02:34:29.763Z,0.80
2023-10-12T02:37:07.393Z,0.70
2023-10-12T02:39:39.889Z,0.60
2023-10-12T02:42:18.835Z,0.70
2023-10-12T02:44:54.483Z,0.80
2023-10-12T02:47:23.939Z,0.90
2023-10-12T02:50:00.636Z,0.80
2023-10-12T02:52:32.779Z,0.80
2023-10-12T02:55:08.541Z,1.00
2023-10-12T02:57:39.107Z,0.80
2023-10-12T03:00:13.741Z,0.70
2023-10-12T03:02:45.232Z,1.10
2023-10-12T03:05:19.046Z,0.70
2023-10-12T03:07:47.265Z,1.10
2023-10-12T03:10:33.134Z,1.30
2023-10-12T03:13:06.191Z,0.80
2023-10-12T03:15:43.421Z,1.00
2023-10-12T03:18:14.679Z,0.80
2023-10-12T03:21:01.841Z,0.80
2023-10-12T03:23:30.733Z,0.70
2023-10-12T03:25:58.064Z,1.30
2023-10-12T03:28:31.931Z,0.80
2023-10-12T03:31:18.491Z,0.70
2023-10-12T03:33:55.116Z,0.70
2023-10-12T03:36:27.064Z,0.80
2023-10-12T03:39:14.182Z,0.80
2023-10-12T03:41:53.036Z,0.70
2023-10-12T03:44:22.571Z,0.70
2023-10-12T03:47:55.827Z,0.70
2023-10-12T03:50:23.192Z,0.80
2023-10-12T03:52:53.628Z,0.80
2023-10-12T03:55:27.750Z,0.80
2023-10-12T03:58:08.008Z,0.70
2023-10-12T04:00:48.136Z,0.70
2023-10-12T04:03:34.905Z,0.80
2023-10-12T04:06:15.641Z,0.80
2023-10-12T04:08:55.698Z,0.90
2023-10-12T04:11:25.893Z,1.20
2023-10-12T04:13:53.256Z,0.80
2023-10-12T04:16:20.681Z,0.70
2023-10-12T04:19:04.622Z,0.80
2023-10-12T04:21:37.118Z,1.20
2023-10-12T04:24:28.114Z,0.80
2023-10-12T04:27:14.038Z,1.50
2023-10-12T04:29:41.330Z,0.90
2023-10-12T04:32:17.003Z,1.00
2023-10-12T04:34:50.322Z,0.70
2023-10-12T04:37:27.154Z,0.90
2023-10-12T04:40:17.898Z,1.00
2023-10-12T04:42:47.070Z,0.90
2023-10-12T04:45:20.476Z,0.90
2023-10-12T04:47:48.039Z,0.70
2023-10-12T04:50:44.915Z,0.80
2023-10-12T04:53:14.174Z,0.90
2023-10-12T04:55:49.064Z,0.90
2023-10-12T04:58:36.853Z,0.80
2023-10-12T05:01:23.147Z,0.80
2023-10-12T05:04:09.256Z,1.00
2023-10-12T05:07:08.787Z,0.70
2023-10-12T05:09:36.208Z,0.80
2023-10-12T05:12:03.637Z,1.00
2023-10-12T05:14:32.111Z,0.90
2023-10-12T05:16:59.571Z,0.90
2023-10-12T05:19:28.136Z,1.10
2023-10-12T05:21:56.498Z,1.60
2023-10-12T05:24:24.460Z,0.70
2023-10-12T05:27:10.528Z,0.80
2023-10-12T05:29:40.105Z,0.80
2023-10-12T05:32:07.757Z,0.80
2023-10-12T05:34:41.234Z,0.80
2023-10-12T05:37:17.730Z,0.90
2023-10-12T05:39:48.362Z,1.10
2023-10-12T05:42:16.174Z,0.90
2023-10-12T05:44:46.358Z,1.10
2023-10-12T05:47:13.637Z,1.00
2023-10-12T05:49:43.861Z,1.10
2023-10-12T05:52:11.773Z,0.80
2023-10-12T05:54:42.166Z,0.90
2023-10-12T05:57:22.905Z,0.90
2023-10-12T05:59:51.113Z,0.80
2023-10-12T06:02:19.298Z,1.00
2023-10-12T06:04:48.586Z,0.80
2023-10-12T06:07:17.202Z,1.00
2023-10-12T06:09:44.593Z,0.80
2023-10-12T06:12:15.096Z,1.00
2023-10-12T06:14:54.307Z,0.70
2023-10-12T06:17:40.723Z,1.00
2023-10-12T06:20:30.066Z,0.80
2023-10-12T06:22:57.855Z,0.80
2023-10-12T06:25:29.776Z,0.90
2023-10-12T06:27:57.168Z,0.90
2023-10-12T06:30:25.428Z,0.80
2023-10-12T06:32:52.916Z,0.90
2023-10-12T06:35:20.447Z,0.70
2023-10-12T06:37:51.063Z,1.00
2023-10-12T06:40:27.858Z,0.80
2023-10-12T06:43:11.130Z,1.00
2023-10-12T06:45:48.237Z,0.80
2023-10-12T06:48:32.147Z,0.80
2023-10-12T06:51:08.320Z,0.90
2023-10-12T06:53:37.445Z,0.90
2023-10-12T06:56:21.301Z,0.90
2023-10-12T06:59:14.494Z,0.80
2023-10-12T07:01:47.756Z,0.80
2023-10-12T07:04:16.337Z,0.80
2023-10-12T07:07:19.756Z,1.10
2023-10-12T07:09:49.773Z,0.80
2023-10-12T07:12:20.661Z,0.90
2023-10-12T07:14:48.736Z,0.90
2023-10-12T07:17:16.721Z,0.90
2023-10-12T07:19:50.988Z,0.90
2023-10-12T07:22:20.097Z,1.00
2023-10-12T07:24:54.261Z,0.70
2023-10-12T07:27:23.499Z,0.70
2023-10-12T07:30:26.383Z,0.80
2023-10-12T07:32:57.110Z,1.30
2023-10-12T07:35:36.007Z,0.90
2023-10-12T07:38:15.495Z,0.90
2023-10-12T07:40:58.141Z,0.90
2023-10-12T07:43:25.929Z,0.70
2023-10-12T07:45:53.971Z,1.00
2023-10-12T07:48:42.360Z,1.00
2023-10-12T07:51:17.067Z,1.20
2023-10-12T07:53:45.601Z,0.90
2023-10-12T07:56:19.122Z,0.70
2023-10-12T07:58:51.737Z,0.80
2023-10-12T08:01:28.187Z,0.80
2023-10-12T08:04:00.171Z,1.10
2023-10-12T08:06:37.197Z,0.80
2023-10-12T08:09:27.588Z,1.10
2023-10-12T08:11:55.230Z,0.80
2023-10-12T08:14:22.827Z,0.80
2023-10-12T08:17:08.966Z,0.90
2023-10-12T08:19:56.776Z,0.80
2023-10-12T08:22:30.910Z,0.80
2023-10-12T08:25:00.633Z,1.00
2023-10-12T08:27:28.488Z,1.30
2023-10-12T08:29:55.774Z,1.00
2023-10-12T08:32:25.920Z,1.10
2023-10-12T08:35:02.316Z,1.00
2023-10-12T08:37:37.455Z,1.20
2023-10-12T08:40:21.310Z,0.80
2023-10-12T08:42:59.889Z,1.00
2023-10-12T08:45:31.236Z,1.00
2023-10-12T08:48:05.555Z,0.80
2023-10-12T08:51:00.313Z,0.90
2023-10-12T08:53:27.929Z,0.90
2023-10-12T08:55:55.702Z,1.70
2023-10-12T08:58:40.424Z,1.10
2023-10-12T09:01:11.807Z,0.90
2023-10-12T09:03:45.819Z,1.30
2023-10-12T09:06:51.896Z,1.10
2023-10-12T09:09:38.214Z,0.80
2023-10-12T09:12:12.831Z,0.80
2023-10-12T09:14:44.702Z,0.80
2023-10-12T09:17:42.401Z,0.70
2023-10-12T09:20:30.542Z,0.70
2023-10-12T09:23:04.779Z,0.70
2023-10-12T09:26:04.029Z,0.90
2023-10-12T09:28:43.618Z,1.10
2023-10-12T09:31:15.496Z,0.80
2023-10-12T09:33:49.898Z,0.70
2023-10-12T09:36:20.506Z,0.70
2023-10-12T09:38:47.935Z,0.70
2023-10-12T09:41:20.802Z,1.00
2023-10-12T09:43:48.469Z,0.80
2023-10-12T09:46:18.503Z,0.80
2023-10-12T09:48:48.535Z,0.80
2023-10-12T09:51:18.713Z,0.70
2023-10-12T09:53:59.165Z,0.70
2023-10-12T09:56:34.928Z,0.80
2023-10-12T09:59:16.945Z,0.70
2023-10-12T10:01:44.529Z,0.90
2023-10-12T10:04:27.339Z,0.80
2023-10-12T10:07:12.695Z,0.70
2023-10-12T10:09:40.020Z,0.80
2023-10-12T10:12:09.911Z,0.80
2023-10-12T10:14:37.912Z,0.80
2023-10-12T10:17:11.297Z,0.80
2023-10-12T10:19:39.292Z,0.90
2023-10-12T10:22:06.781Z,0.80
2023-10-12T10:24:47.629Z,0.70
2023-10-12T10:27:15.451Z,0.80
2023-10-12T10:29:54.469Z,0.80
2023-10-12T10:32:38.302Z,0.70
2023-10-12T10:35:24.684Z,0.70
2023-10-12T10:38:01.038Z,0.70
2023-10-12T10:40:45.526Z,0.90
2023-10-12T10:43:17.111Z,0.70
2023-10-12T10:45:55.437Z,0.70
2023-10-12T10:48:58.277Z,0.70
2023-10-12T10:51:33.722Z,0.80
2023-10-12T10:54:01.109Z,0.80
2023-10-12T10:56:36.867Z,0.70
2023-10-12T10:59:14.535Z,0.70
2023-10-12T11:01:50.237Z,0.60
2023-10-12T11:04:41.927Z,0.80
2023-10-12T11:07:13.484Z,0.70
2023-10-12T11:10:06.983Z,0.90
2023-10-12T11:12:37.879Z,0.80
2023-10-12T11:15:10.739Z,0.70
2023-10-12T11:17:43.041Z,0.60
2023-10-12T11:20:37.047Z,0.70
2023-10-12T11:23:08.987Z,0.80
2023-10-12T11:25:41.189Z,0.70
2023-10-12T11:28:22.237Z,0.60
2023-10-12T11:30:53.533Z,1.10
2023-10-12T11:33:25.391Z,0.80
2023-10-12T11:35:55.262Z,0.70
2023-10-12T11:38:24.723Z,0.80
2023-10-12T11:40:57.068Z,0.80
2023-10-12T11:43:30.753Z,0.70
2023-10-12T11:46:05.506Z,0.70
2023-10-12T11:48:33.036Z,0.80
2023-10-12T11:51:12.318Z,0.60
2023-10-12T11:53:40.436Z,0.80
2023-10-12T11:56:14.387Z,0.70
2023-10-12T11:58:42.410Z,0.80
2023-10-12T12:01:11.382Z,0.60
2023-10-12T12:03:41.561Z,1.00
2023-10-12T12:06:19.459Z,1.00
2023-10-12T12:08:47.547Z,0.70
2023-10-12T12:11:20.348Z,0.90
2023-10-12T12:13:53.422Z,0.80
2023-10-12T12:16:23.931Z,1.50
2023-10-12T12:18:53.349Z,0.70
2023-10-12T12:21:30.540Z,1.00
2023-10-12T12:24:02.278Z,0.70
2023-10-12T12:26:34.961Z,0.90
2023-10-12T12:29:05.634Z,0.70
2023-10-12T12:31:33.984Z,0.90
2023-10-12T12:34:07.743Z,0.80
2023-10-12T12:36:35.496Z,0.70
2023-10-12T12:39:10.432Z,1.30
2023-10-12T12:41:37.879Z,0.80
2023-10-12T12:44:09.612Z,0.80
2023-10-12T12:46:38.630Z,1.00
2023-10-12T12:49:08.156Z,0.80
2023-10-12T12:51:36.202Z,1.10
2023-10-12T12:54:03.832Z,1.10
2023-10-12T12:56:31.125Z,0.90
2023-10-12T12:58:58.494Z,0.90
2023-10-12T13:01:26.546Z,0.80
2023-10-12T13:03:56.618Z,0.90
2023-10-12T13:06:24.994Z,1.30
2023-10-12T13:08:52.503Z,0.70
2023-10-12T13:11:20.340Z,0.60
2023-10-12T13:13:49.220Z,0.80
2023-10-12T13:16:17.447Z,0.80
2023-10-12T13:18:47.684Z,0.80
2023-10-12T13:21:16.078Z,0.80
2023-10-12T13:23:44.373Z,0.80
2023-10-12T13:26:14.447Z,0.70
2023-10-12T13:28:43.643Z,0.80
2023-10-12T13:31:14.601Z,1.40
2023-10-12T13:33:43.785Z,0.90
2023-10-12T13:36:11.449Z,1.40
2023-10-12T13:38:39.240Z,1.30
2023-10-12T13:41:07.076Z,1.00
2023-10-12T13:43:36.395Z,0.90
2023-10-12T13:46:09.049Z,0.70
2023-10-12T13:48:40.470Z,1.30
2023-10-12T13:51:25.430Z,0.70
2023-10-12T13:53:53.123Z,0.60
2023-10-12T13:56:25.459Z,0.60
2023-10-12T13:59:02.104Z,0.70
2023-10-12T14:01:34.825Z,0.70
2023-10-12T14:04:02.855Z,0.70
2023-10-12T14:06:32.383Z,1.20
2023-10-12T14:09:00.248Z,0.90
2023-10-12T14:11:27.636Z,0.70
2023-10-12T14:13:54.957Z,0.80
2023-10-12T14:16:22.453Z,1.10
2023-10-12T14:18:53.005Z,0.90
2023-10-12T14:21:20.830Z,0.80
2023-10-12T14:23:50.298Z,0.70
2023-10-12T14:26:23.972Z,0.80
2023-10-12T14:28:52.703Z,0.80
2023-10-12T14:31:24.533Z,1.00
2023-10-12T14:33:53.726Z,1.00
2023-10-12T14:36:21.523Z,1.20
2023-10-12T14:38:49.112Z,0.80
2023-10-12T14:41:18.869Z,1.00
2023-10-12T14:43:48.486Z,1.00
2023-10-12T14:46:20.297Z,0.90
2023-10-12T14:48:52.840Z,0.90
2023-10-12T14:51:27.093Z,1.80
2023-10-12T14:53:54.888Z,1.50
2023-10-12T14:56:28.797Z,1.60
2023-10-12T14:58:59.701Z,1.50
2023-10-12T15:01:30.892Z,1.70
2023-10-12T15:03:58.843Z,1.30
2023-10-12T15:06:27.000Z,1.60
2023-10-12T15:08:54.711Z,1.10
2023-10-12T15:11:22.128Z,1.60
2023-10-12T15:13:50.785Z,1.30
2023-10-12T15:16:19.704Z,1.30
2023-10-12T15:18:47.482Z,1.40
2023-10-12T15:23:45.366Z,1.20
2023-10-12T15:26:14.700Z,0.90
2023-10-12T15:28:48.322Z,1.40
2023-10-12T15:31:18.172Z,2.10
2023-10-12T15:33:45.811Z,2.10
2023-10-12T15:36:18.197Z,1.90
2023-10-12T15:38:45.529Z,1.90
2023-10-12T15:41:12.865Z,1.70
2023-10-12T15:43:40.621Z,1.30
2023-10-12T15:46:12.602Z,1.80
2023-10-12T15:48:43.458Z,2.50
2023-10-12T15:51:21.765Z,1.60
2023-10-12T15:53:50.596Z,2.50
2023-10-12T15:56:19.045Z,2.50
2023-10-12T15:58:48.707Z,2.20
2023-10-12T16:01:16.430Z,2.10
2023-10-12T16:04:30.655Z,2.80
2023-10-12T16:06:58.575Z,3.70
2023-10-12T16:09:31.837Z,2.90
2023-10-12T16:12:00.144Z,2.00
2023-10-12T16:14:27.460Z,1.60
2023-10-12T16:16:55.121Z,1.40
2023-10-12T16:19:23.123Z,1.60
2023-10-12T16:21:52.017Z,1.40
2023-10-12T16:24:19.507Z,2.90
2023-10-12T16:26:48.098Z,4.80
2023-10-12T16:29:15.448Z,5.60
2023-10-12T16:31:45.026Z,4.90
2023-10-12T16:34:14.115Z,5.80
2023-10-12T16:36:41.677Z,4.50
2023-10-12T16:39:12.106Z,5.10
2023-10-12T16:41:40.636Z,4.00
2023-10-12T16:44:08.227Z,2.50
2023-10-12T16:46:36.265Z,1.90
2023-10-12T16:49:03.737Z,1.40
2023-10-12T16:51:31.532Z,2.40
2023-10-12T16:53:59.109Z,1.60
2023-10-12T16:56:26.412Z,1.20
2023-10-12T16:58:53.752Z,1.70
2023-10-12T17:01:21.194Z,1.50
2023-10-12T17:03:49.223Z,1.60
2023-10-12T17:06:17.897Z,1.80
2023-10-12T17:08:45.328Z,1.70
2023-10-12T17:11:13.227Z,1.40
2023-10-12T17:13:40.710Z,2.10
2023-10-12T17:16:08.306Z,2.40
2023-10-12T17:18:36.499Z,1.70
2023-10-12T17:21:04.118Z,1.90
2023-10-12T17:23:31.652Z,2.10
2023-10-12T17:26:00.074Z,1.80
2023-10-12T17:28:32.031Z,2.20
2023-10-12T17:31:09.650Z,3.00
2023-10-12T17:33:37.590Z,1.90
2023-10-12T17:36:12.718Z,2.20
2023-10-12T17:38:40.309Z,1.80
2023-10-12T17:41:07.827Z,1.80
2023-10-12T17:43:35.224Z,2.30
2023-10-12T17:46:02.791Z,2.40
2023-10-12T17:48:30.446Z,2.50
2023-10-12T17:50:59.170Z,3.40
2023-10-12T17:53:28.257Z,2.80
2023-10-12T17:55:56.540Z,2.40
2023-10-12T17:58:25.049Z,2.30
2023-10-12T18:00:52.937Z,2.10
2023-10-12T18:03:20.699Z,3.00
2023-10-12T18:05:57.415Z,1.90
2023-10-12T18:08:26.796Z,2.90
2023-10-12T18:11:07.214Z,2.70
2023-10-12T18:13:35.022Z,1.90
2023-10-12T18:16:04.726Z,1.80
2023-10-12T18:18:32.221Z,1.70
2023-10-12T18:20:59.641Z,1.80
2023-10-12T18:23:27.953Z,1.60
2023-10-12T18:25:58.357Z,1.50
2023-10-12T18:28:26.861Z,1.90
2023-10-12T18:31:02.066Z,1.60
2023-10-12T18:33:33.649Z,2.50
2023-10-12T18:36:01.790Z,1.90
2023-10-12T18:38:29.360Z,1.60
2023-10-12T18:41:07.184Z,1.90
2023-10-12T18:43:35.421Z,2.10
2023-10-12T18:46:04.829Z,1.70
2023-10-12T18:48:32.833Z,1.50
2023-10-12T18:51:06.261Z,2.20
2023-10-12T18:53:33.786Z,1.60
2023-10-12T18:56:05.671Z,2.10
2023-10-12T18:58:35.906Z,1.80
2023-10-12T19:01:04.569Z,2.20
2023-10-12T19:03:32.831Z,2.30
2023-10-12T19:06:04.748Z,2.30
2023-10-12T19:08:32.402Z,2.10
2023-10-12T19:11:04.525Z,1.50
2023-10-12T19:13:31.896Z,1.50
2023-10-12T19:15:59.275Z,1.60
2023-10-12T19:18:31.185Z,1.50
2023-10-12T19:20:58.926Z,1.40
2023-10-12T19:23:26.560Z,2.20
2023-10-12T19:25:57.213Z,2.10
2023-10-12T19:28:28.213Z,1.90
2023-10-12T19:30:57.553Z,1.90
2023-10-12T19:33:25.134Z,2.80
2023-10-12T19:35:52.796Z,2.40
2023-10-12T19:38:23.105Z,3.00
2023-10-12T19:40:51.823Z,2.50
2023-10-12T19:43:19.880Z,2.40
2023-10-12T19:45:47.385Z,1.90
2023-10-12T19:48:16.698Z,2.20
2023-10-12T19:50:44.445Z,1.90
2023-10-12T19:53:12.851Z,2.30
2023-10-12T19:55:40.265Z,2.40
2023-10-12T19:58:11.148Z,2.30
2023-10-12T20:00:41.200Z,1.50
2023-10-12T20:03:19.091Z,2.30
2023-10-12T20:05:49.363Z,1.80
2023-10-12T20:08:18.164Z,1.80
2023-10-12T20:10:47.240Z,2.20
2023-10-12T20:13:14.681Z,2.60
2023-10-12T20:15:42.050Z,2.40
2023-10-12T20:18:09.550Z,2.00
2023-10-12T20:20:43.483Z,1.80
2023-10-12T20:23:15.292Z,3.00
2023-10-12T20:25:45.829Z,2.10
2023-10-12T20:28:13.601Z,2.10
2023-10-12T20:30:46.535Z,2.50
2023-10-12T20:33:15.195Z,2.20
2023-10-12T20:35:42.576Z,2.40
2023-10-12T20:38:12.688Z,1.60
2023-10-12T20:40:40.929Z,2.00
2023-10-12T20:43:16.808Z,1.60
2023-10-12T20:45:59.168Z,2.20
2023-10-12T20:48:27.533Z,2.20
2023-10-12T20:50:56.368Z,2.80
2023-10-12T20:53:24.692Z,1.90
2023-10-12T20:55:55.997Z,2.10
2023-10-12T20:58:24.863Z,2.10
2023-10-12T21:00:58.631Z,2.40
2023-10-12T21:03:37.650Z,3.10
2023-10-12T21:06:08.729Z,1.40
2023-10-12T21:08:44.059Z,3.00
2023-10-12T21:11:23.205Z,1.80
2023-10-12T21:13:52.947Z,1.80
2023-10-12T21:16:23.184Z,1.90
2023-10-12T21:18:55.394Z,3.10
2023-10-12T21:21:25.871Z,4.70
2023-10-12T21:23:53.500Z,2.80
2023-10-12T21:26:30.678Z,2.00
2023-10-12T21:29:01.560Z,2.90
2023-10-12T21:31:29.781Z,3.30
2023-10-12T21:34:01.624Z,1.80
2023-10-12T21:36:33.072Z,1.70
2023-10-12T21:39:00.381Z,2.30
2023-10-12T21:41:34.772Z,2.10
2023-10-12T21:46:33.834Z,3.90
2023-10-12T21:49:01.382Z,2.20
2023-10-12T21:51:29.629Z,1.90
2023-10-12T21:53:58.583Z,1.90
2023-10-12T21:56:26.402Z,1.60
2023-10-12T21:58:53.760Z,2.50
2023-10-12T22:02:03.722Z,2.40
2023-10-12T22:04:36.247Z,2.90
2023-10-12T22:07:08.200Z,3.20
2023-10-12T22:09:45.709Z,2.30
2023-10-12T22:12:14.867Z,2.10
2023-10-12T22:14:51.683Z,2.20
2023-10-12T22:17:19.406Z,2.80
2023-10-12T22:19:47.408Z,2.50
2023-10-12T22:22:15.310Z,3.00
2023-10-12T22:24:42.730Z,2.90
2023-10-12T22:27:10.083Z,2.40
2023-10-12T22:29:37.423Z,1.90
2023-10-12T22:32:05.028Z,2.40
2023-10-12T22:34:32.498Z,2.20
2023-10-12T22:36:59.855Z,2.90
2023-10-12T22:39:33.350Z,2.40
2023-10-12T22:42:02.977Z,2.60
2023-10-12T22:44:31.086Z,2.00
2023-10-12T22:46:58.532Z,2.90
2023-10-12T22:49:26.524Z,2.60
2023-10-12T22:51:53.861Z,2.70
2023-10-12T22:54:21.249Z,3.10
2023-10-12T22:56:54.166Z,3.30
2023-10-12T22:59:21.892Z,2.40
2023-10-12T23:01:49.655Z,3.20
2023-10-12T23:04:17.088Z,2.10
2023-10-12T23:06:44.468Z,2.60
2023-10-12T23:09:18.490Z,1.70
2023-10-12T23:11:56.520Z,1.60
2023-10-12T23:14:30.655Z,2.10
2023-10-12T23:16:59.454Z,3.30
2023-10-12T23:19:59.663Z,3.30
2023-10-12T23:22:27.225Z,3.40
2023-10-12T23:25:07.244Z,2.60
2023-10-12T23:27:34.877Z,3.00
2023-10-12T23:30:12.713Z,2.90
2023-10-12T23:32:41.626Z,3.40
2023-10-12T23:35:18.567Z,3.00
2023-10-12T23:38:12.999Z,2.80
2023-10-12T23:40:57.006Z,2.70
2023-10-12T23:43:26.107Z,2.90
2023-10-12T23:45:59.935Z,3.40
2023-10-12T23:48:27.533Z,3.50
2023-10-12T23:51:04.792Z,3.10
2023-10-12T23:53:40.138Z,3.10
2023-10-12T23:56:15.034Z,3.00
2023-10-12T23:58:42.866Z,3.10
